Time;durP1;ratioP1;P1;durP2;ratioP2;P2;SDS_P1;SDS_P2;PMS_P1;PMS_P2;Temp;Humidity;BMP_temperature;BMP_pressure;BME280_temperature;BME280_humidity;BME280_pressure;Samples;Min_cycle;Max_cycle;Signal;HPM_P1;HPM_P2
2022/06/25 00:00:00;;;;;;;4.67;2.90;;;19.00;87.10;;;;;;5056243;28;21001;-47
2022/06/25 00:02:27;;;;;;;4.97;3.07;;;18.90;87.10;;;;;;5056187;28;20455;-47
2022/06/25 00:07:39;;;;;;;2.90;2.70;;;18.90;87.50;;;;;;5059422;28;20568;-47
2022/06/25 00:10:07;;;;;;;8.83;4.03;;;18.90;87.50;;;;;;5022991;28;20600;-46
2022/06/25 00:12:34;;;;;;;3.27;2.93;;;18.80;87.60;;;;;;5057214;28;20473;-47
2022/06/25 00:15:03;;;;;;;4.83;3.10;;;18.80;87.70;;;;;;5056994;28;20516;-47
2022/06/25 00:17:31;;;;;;;2.63;2.43;;;18.80;87.80;;;;;;5056435;28;20527;-47
2022/06/25 00:19:58;;;;;;;6.00;3.77;;;18.80;87.90;;;;;;5041674;28;20589;-46
2022/06/25 00:22:26;;;;;;;3.80;2.90;;;18.70;88.00;;;;;;5056201;28;20454;-46
2022/06/25 00:24:53;;;;;;;6.03;3.17;;;18.80;88.10;;;;;;5052410;28;21027;-46
2022/06/25 00:27:20;;;;;;;3.07;2.87;;;18.80;87.90;;;;;;5059869;28;20445;-46
2022/06/25 00:29:46;;;;;;;3.20;2.90;;;18.80;87.50;;;;;;5059363;28;20462;-46
2022/06/25 00:32:13;;;;;;;4.30;3.00;;;18.70;87.30;;;;;;5052057;28;20520;-47
2022/06/25 00:34:40;;;;;;;3.77;3.13;;;18.70;87.20;;;;;;5041088;28;20493;-46
2022/06/25 00:37:08;;;;;;;3.13;2.83;;;18.70;87.10;;;;;;5056768;28;20553;-47
2022/06/25 00:39:36;;;;;;;4.27;3.00;;;18.70;87.30;;;;;;5053866;28;20457;-47
2022/06/25 00:42:09;;;;;;;4.13;2.77;;;18.70;87.40;;;;;;5030450;28;20943;-47
2022/06/25 00:44:37;;;;;;;3.17;2.90;;;18.70;87.20;;;;;;5043769;28;21070;-47
2022/06/25 00:47:07;;;;;;;4.70;2.70;;;18.70;87.20;;;;;;5053936;28;20476;-47
2022/06/25 00:49:34;;;;;;;2.93;2.43;;;18.70;87.20;;;;;;5050317;28;20557;-46
2022/06/25 00:52:19;;;;;;;6.23;3.40;;;18.60;87.20;;;;;;5057601;28;20492;-46
2022/06/25 00:54:50;;;;;;;4.13;2.50;;;18.60;87.40;;;;;;5054936;28;20489;-49
2022/06/25 00:57:25;;;;;;;4.13;2.90;;;18.60;87.60;;;;;;5051162;28;20467;-52
2022/06/25 01:00:03;;;;;;;3.10;2.10;;;18.60;87.60;;;;;;5056940;28;20486;-51
2022/06/25 01:02:30;;;;;;;7.80;3.10;;;18.60;87.80;;;;;;5055854;28;20453;-51
2022/06/25 01:04:57;;;;;;;3.23;2.47;;;18.60;87.90;;;;;;5044683;28;20466;-51
2022/06/25 01:07:24;;;;;;;2.40;2.20;;;18.60;87.90;;;;;;5059685;28;20548;-51
2022/06/25 01:09:51;;;;;;;5.73;2.63;;;18.60;87.90;;;;;;5056899;28;20477;-51
2022/06/25 01:12:18;;;;;;;8.97;2.83;;;18.60;88.00;;;;;;5041478;28;20500;-51
2022/06/25 01:14:45;;;;;;;8.40;2.63;;;18.60;88.00;;;;;;5057186;28;20497;-51
2022/06/25 01:17:12;;;;;;;2.60;2.40;;;18.60;88.00;;;;;;5051145;28;20516;-51
2022/06/25 01:19:39;;;;;;;5.43;2.70;;;18.50;88.00;;;;;;5041898;28;20561;-51
2022/06/25 01:22:07;;;;;;;3.07;2.47;;;18.50;87.90;;;;;;5058379;28;20469;-51
2022/06/25 01:24:34;;;;;;;3.83;2.80;;;18.50;87.80;;;;;;5058091;28;20471;-51
2022/06/25 01:27:11;;;;;;;3.00;2.60;;;18.50;87.60;;;;;;5038337;28;21300;-51
2022/06/25 01:29:38;;;;;;;5.00;2.73;;;18.50;87.70;;;;;;5052290;28;20458;-51
2022/06/25 01:32:06;;;;;;;5.73;2.70;;;18.40;87.90;;;;;;5051489;28;20553;-51
2022/06/25 01:34:32;;;;;;;3.83;2.80;;;18.40;87.90;;;;;;5056385;28;20453;-51
2022/06/25 01:36:59;;;;;;;2.83;2.53;;;18.40;88.00;;;;;;5062181;28;20450;-51
2022/06/25 01:39:26;;;;;;;4.07;2.63;;;18.40;87.90;;;;;;5061311;28;20468;-51
2022/06/25 01:41:53;;;;;;;3.07;2.70;;;18.40;87.80;;;;;;5059240;28;20467;-51
2022/06/25 01:44:19;;;;;;;3.37;2.63;;;18.40;87.80;;;;;;5053261;28;20811;-51
2022/06/25 01:46:46;;;;;;;4.37;2.60;;;18.40;87.90;;;;;;5054568;28;20460;-51
2022/06/25 01:49:14;;;;;;;6.30;2.47;;;18.40;87.90;;;;;;5058042;28;20496;-51
2022/06/25 01:51:40;;;;;;;2.83;2.53;;;18.40;88.00;;;;;;5060701;28;20540;-51
2022/06/25 01:54:07;;;;;;;4.60;3.20;;;18.30;88.00;;;;;;5044546;28;20464;-51
2022/06/25 01:56:34;;;;;;;4.00;2.20;;;18.30;88.10;;;;;;5059505;28;21077;-51
2022/06/25 01:59:01;;;;;;;2.50;2.30;;;18.30;87.90;;;;;;5059791;28;20810;-51
2022/06/25 02:01:28;;;;;;;5.10;2.57;;;18.30;87.80;;;;;;5056235;28;20890;-51
2022/06/25 02:03:54;;;;;;;3.50;2.67;;;18.30;87.60;;;;;;5060909;28;20545;-51
2022/06/25 02:06:21;;;;;;;4.37;2.80;;;18.30;87.70;;;;;;5047850;28;20970;-51
2022/06/25 02:08:48;;;;;;;7.17;3.00;;;18.30;87.70;;;;;;5062000;28;20457;-51
2022/06/25 02:11:15;;;;;;;5.03;2.60;;;18.20;87.80;;;;;;5060644;28;20457;-48
2022/06/25 02:13:42;;;;;;;2.83;2.20;;;18.20;87.90;;;;;;5061526;28;20702;-48
2022/06/25 02:16:09;;;;;;;2.70;2.40;;;18.20;87.80;;;;;;5058721;28;20495;-48
2022/06/25 02:18:36;;;;;;;3.20;2.90;;;18.20;87.80;;;;;;5047011;28;20461;-48
2022/06/25 02:21:03;;;;;;;5.70;3.00;;;18.20;87.80;;;;;;5058335;28;20990;-48
2022/06/25 02:23:30;;;;;;;5.80;3.33;;;18.20;87.80;;;;;;5052492;28;20520;-48
2022/06/25 02:25:57;;;;;;;3.10;2.87;;;18.10;87.70;;;;;;5059196;28;21517;-48
2022/06/25 02:28:23;;;;;;;5.50;3.07;;;18.10;87.70;;;;;;5045867;28;20461;-48
2022/06/25 02:30:50;;;;;;;4.63;2.70;;;18.10;87.90;;;;;;5060593;28;20549;-48
2022/06/25 02:33:17;;;;;;;3.10;2.80;;;18.10;88.00;;;;;;5057742;28;20553;-48
2022/06/25 02:35:44;;;;;;;3.40;2.80;;;18.10;88.10;;;;;;5057864;28;21022;-48
2022/06/25 02:38:12;;;;;;;3.63;3.27;;;18.10;88.00;;;;;;5059715;28;20459;-48
2022/06/25 02:40:39;;;;;;;3.07;2.87;;;18.10;87.80;;;;;;5057221;28;20470;-48
2022/06/25 02:43:05;;;;;;;2.90;2.70;;;18.00;87.90;;;;;;5043613;28;20458;-48
2022/06/25 02:45:32;;;;;;;4.03;3.20;;;18.00;87.90;;;;;;5061322;28;20457;-48
2022/06/25 02:47:59;;;;;;;3.93;3.00;;;18.00;88.10;;;;;;5046043;28;20568;-48
2022/06/25 02:50:27;;;;;;;5.00;3.10;;;18.00;88.40;;;;;;5053967;28;20465;-48
2022/06/25 02:52:54;;;;;;;4.57;2.67;;;18.00;88.60;;;;;;5056040;28;20458;-48
2022/06/25 03:00:53;;;;;;;4.53;2.90;;;17.90;88.50;;;;;;5052553;28;20495;-48
2022/06/25 03:03:19;;;;;;;3.90;3.03;;;17.90;88.50;;;;;;5055669;28;20454;-48
2022/06/25 03:05:46;;;;;;;8.07;2.90;;;17.90;88.50;;;;;;5054271;28;20491;-48
2022/06/25 03:08:13;;;;;;;4.67;3.20;;;17.90;88.60;;;;;;5053194;28;20855;-48
2022/06/25 03:10:40;;;;;;;4.50;3.77;;;17.90;88.60;;;;;;5063923;28;20450;-48
2022/06/25 03:13:06;;;;;;;6.43;3.13;;;17.90;88.60;;;;;;5042300;28;20473;-48
2022/06/25 03:15:33;;;;;;;3.30;3.00;;;17.90;88.50;;;;;;5059201;28;20875;-48
2022/06/25 03:18:00;;;;;;;3.37;3.00;;;17.90;88.50;;;;;;5057798;28;20470;-48
2022/06/25 03:20:27;;;;;;;7.27;3.63;;;17.90;88.30;;;;;;5055531;28;20457;-48
2022/06/25 03:22:54;;;;;;;4.60;2.83;;;17.90;88.20;;;;;;5040360;28;20963;-48
2022/06/25 03:25:21;;;;;;;6.00;3.40;;;17.80;87.90;;;;;;5053943;28;20458;-48
2022/06/25 03:27:47;;;;;;;4.63;3.13;;;17.80;87.80;;;;;;5056903;28;20465;-48
2022/06/25 03:30:15;;;;;;;3.90;2.53;;;17.80;87.60;;;;;;5053429;28;20542;-48
2022/06/25 03:32:41;;;;;;;8.40;3.40;;;17.80;87.40;;;;;;5053963;28;20462;-48
2022/06/25 03:35:09;;;;;;;3.67;3.20;;;17.80;87.40;;;;;;5033079;28;20496;-47
2022/06/25 03:37:35;;;;;;;8.53;3.80;;;17.70;87.60;;;;;;5052254;28;20468;-47
2022/06/25 03:40:03;;;;;;;4.67;2.53;;;17.70;87.70;;;;;;5053929;28;20454;-48
2022/06/25 03:42:29;;;;;;;5.93;3.00;;;17.70;87.70;;;;;;5055464;28;20538;-48
2022/06/25 03:44:56;;;;;;;3.70;3.30;;;17.70;87.70;;;;;;5040003;28;20497;-48
2022/06/25 03:47:23;;;;;;;3.93;3.53;;;17.60;87.80;;;;;;5057309;28;20462;-48
2022/06/25 03:49:50;;;;;;;4.80;2.97;;;17.60;87.80;;;;;;5043062;28;20962;-48
2022/06/25 03:52:16;;;;;;;7.60;3.73;;;17.60;87.90;;;;;;5052263;28;20877;-48
2022/06/25 03:54:43;;;;;;;4.67;3.53;;;17.60;87.90;;;;;;5050263;28;21107;-48
2022/06/25 03:57:10;;;;;;;7.10;3.20;;;17.60;88.00;;;;;;5037376;28;20490;-47
2022/06/25 03:59:37;;;;;;;6.13;3.30;;;17.60;88.20;;;;;;5049958;28;20475;-48
2022/06/25 04:02:04;;;;;;;7.27;4.30;;;17.60;88.30;;;;;;5059023;28;20895;-48
2022/06/25 04:04:30;;;;;;;3.80;3.33;;;17.60;88.50;;;;;;5041276;28;20457;-48
2022/06/25 04:06:57;;;;;;;3.67;3.30;;;17.60;88.60;;;;;;5051831;28;20882;-48
2022/06/25 04:09:24;;;;;;;4.30;3.67;;;17.60;88.70;;;;;;5057499;28;20461;-47
2022/06/25 04:11:51;;;;;;;4.90;3.50;;;17.60;88.70;;;;;;5059128;28;20548;-48
2022/06/25 04:14:17;;;;;;;5.87;3.20;;;17.60;88.70;;;;;;5043468;28;20452;-48
2022/06/25 04:16:44;;;;;;;7.23;3.97;;;17.60;88.70;;;;;;5055989;28;20496;-48
2022/06/25 04:19:11;;;;;;;4.60;4.17;;;17.60;88.90;;;;;;5042927;28;20453;-48
2022/06/25 04:21:38;;;;;;;6.77;3.70;;;17.60;88.90;;;;;;5060882;28;20465;-47
2022/06/25 04:24:04;;;;;;;4.30;3.77;;;17.60;89.00;;;;;;5055305;28;20455;-48
2022/06/25 04:26:31;;;;;;;4.40;3.67;;;17.70;89.00;;;;;;5033636;28;20475;-48
2022/06/25 04:29:04;;;;;;;4.03;3.20;;;17.70;89.10;;;;;;5053876;28;20462;-48
2022/06/25 04:31:32;;;;;;;4.10;3.70;;;17.70;89.10;;;;;;5053284;28;20469;-48
2022/06/25 04:34:00;;;;;;;4.33;3.93;;;17.70;89.20;;;;;;5040492;28;20842;-48
2022/06/25 04:36:27;;;;;;;4.00;3.70;;;17.70;89.20;;;;;;5053496;28;20520;-48
2022/06/25 04:38:54;;;;;;;4.57;4.17;;;17.70;89.40;;;;;;5058120;28;20650;-48
2022/06/25 04:41:22;;;;;;;3.97;3.67;;;17.80;89.40;;;;;;5053859;28;20481;-47
2022/06/25 04:43:49;;;;;;;4.47;4.07;;;17.80;89.30;;;;;;5053792;28;20475;-48
2022/06/25 04:46:16;;;;;;;5.00;3.67;;;17.80;89.40;;;;;;5037191;28;20465;-48
2022/06/25 04:48:43;;;;;;;4.10;3.70;;;17.90;89.30;;;;;;5052486;28;20464;-48
2022/06/25 04:51:10;;;;;;;5.30;3.80;;;17.90;89.30;;;;;;5053361;28;20485;-48
2022/06/25 04:53:54;;;;;;;7.30;3.90;;;17.90;89.30;;;;;;5039930;28;20593;-48
2022/06/25 04:56:26;;;;;;;4.77;4.37;;;17.90;89.30;;;;;;5042909;28;21025;-48
2022/06/25 04:58:54;;;;;;;4.17;3.80;;;18.00;89.20;;;;;;5055233;28;20640;-48
2022/06/25 05:01:22;;;;;;;4.63;3.97;;;18.00;89.10;;;;;;5060511;28;21052;-48
2022/06/25 05:03:49;;;;;;;5.83;4.70;;;18.00;89.20;;;;;;5056140;28;20457;-48
2022/06/25 05:06:16;;;;;;;3.90;3.60;;;18.00;89.20;;;;;;5036985;28;21219;-48
2022/06/25 05:08:43;;;;;;;4.90;4.50;;;18.10;89.30;;;;;;5061848;28;20515;-48
2022/06/25 05:11:09;;;;;;;4.97;4.40;;;18.10;89.60;;;;;;5039844;28;20454;-47
2022/06/25 05:13:36;;;;;;;5.23;4.40;;;18.10;89.40;;;;;;5059916;28;20838;-47
2022/06/25 05:16:03;;;;;;;5.30;4.80;;;18.20;89.60;;;;;;5056665;28;20999;-47
2022/06/25 05:18:30;;;;;;;5.30;4.83;;;18.20;89.70;;;;;;5061757;28;20802;-48
2022/06/25 05:20:57;;;;;;;5.30;4.80;;;18.30;89.70;;;;;;5036750;28;20464;-48
2022/06/25 05:23:24;;;;;;;5.50;5.00;;;18.30;89.70;;;;;;5052367;28;20507;-48
2022/06/25 05:25:51;;;;;;;7.73;4.87;;;18.30;89.50;;;;;;5056298;28;20870;-47
2022/06/25 05:28:18;;;;;;;11.77;5.10;;;18.40;89.50;;;;;;5044788;28;20980;-48
2022/06/25 05:30:45;;;;;;;5.13;4.73;;;18.40;89.50;;;;;;5054759;28;20461;-47
2022/06/25 05:33:12;;;;;;;8.03;5.83;;;18.40;89.70;;;;;;5055279;28;20532;-48
2022/06/25 05:35:38;;;;;;;6.40;5.17;;;18.50;89.80;;;;;;5058725;28;20454;-48
2022/06/25 05:38:07;;;;;;;6.53;5.50;;;18.60;89.70;;;;;;5054398;28;20457;-47
2022/06/25 05:40:35;;;;;;;6.93;6.07;;;18.60;89.80;;;;;;5058687;28;20516;-48
2022/06/25 05:43:02;;;;;;;8.03;7.27;;;18.70;89.70;;;;;;5045572;28;20553;-48
2022/06/25 05:45:29;;;;;;;7.60;6.20;;;18.80;89.20;;;;;;5052658;28;20544;-48
2022/06/25 05:47:56;;;;;;;10.90;7.80;;;18.80;89.00;;;;;;5060390;28;20463;-48
2022/06/25 05:50:23;;;;;;;7.90;7.20;;;18.80;89.00;;;;;;5058375;28;20461;-48
2022/06/25 05:52:50;;;;;;;9.00;8.03;;;18.80;89.00;;;;;;5060706;28;20470;-48
2022/06/25 05:55:16;;;;;;;8.70;7.67;;;18.80;89.10;;;;;;5043570;28;20458;-48
2022/06/25 05:57:43;;;;;;;8.73;7.83;;;18.80;89.20;;;;;;5057633;28;20580;-48
2022/06/25 06:00:10;;;;;;;9.47;8.57;;;18.80;88.90;;;;;;5056702;28;20466;-48
2022/06/25 06:02:37;;;;;;;8.73;7.93;;;18.90;88.00;;;;;;5059222;28;20485;-48
2022/06/25 06:05:04;;;;;;;10.50;9.40;;;18.90;88.20;;;;;;5034915;28;20457;-48
2022/06/25 06:07:31;;;;;;;11.20;9.30;;;19.00;88.00;;;;;;5050982;28;20504;-48
2022/06/25 06:09:59;;;;;;;10.80;9.70;;;19.10;87.30;;;;;;5049311;28;20462;-49
2022/06/25 06:12:26;;;;;;;9.83;8.93;;;19.10;87.50;;;;;;5053657;28;20457;-48
2022/06/25 06:14:53;;;;;;;9.90;8.97;;;19.10;87.70;;;;;;5030913;28;20851;-47
2022/06/25 06:17:20;;;;;;;12.63;9.63;;;19.10;87.50;;;;;;5049942;28;20955;-48
2022/06/25 06:19:47;;;;;;;12.03;10.37;;;19.10;87.50;;;;;;5046996;28;20619;-48
2022/06/25 06:22:14;;;;;;;11.17;10.03;;;19.10;87.70;;;;;;5037119;28;20547;-48
2022/06/25 06:24:44;;;;;;;10.73;9.67;;;19.20;87.10;;;;;;5021048;28;20453;-48
2022/06/25 06:27:11;;;;;;;12.63;9.90;;;19.10;87.30;;;;;;5061225;28;21205;-48
2022/06/25 06:29:37;;;;;;;11.07;9.90;;;19.20;87.00;;;;;;5046245;28;20520;-48
2022/06/25 06:32:05;;;;;;;13.30;10.37;;;19.20;87.30;;;;;;5060495;28;20977;-49
2022/06/25 06:34:32;;;;;;;12.30;11.13;;;19.20;87.50;;;;;;5042885;28;20470;-48
2022/06/25 06:36:58;;;;;;;9.73;8.70;;;19.20;87.50;;;;;;5060103;28;20494;-48
2022/06/25 06:39:25;;;;;;;11.37;10.27;;;19.30;87.30;;;;;;5058523;28;20465;-48
2022/06/25 06:41:53;;;;;;;11.40;10.20;;;19.30;87.50;;;;;;5047921;28;20808;-48
2022/06/25 06:44:19;;;;;;;12.33;11.13;;;19.40;87.20;;;;;;5058725;28;20537;-48
2022/06/25 06:46:47;;;;;;;12.83;11.53;;;19.40;87.30;;;;;;5049137;28;20485;-48
2022/06/25 06:49:13;;;;;;;12.37;11.23;;;19.30;87.40;;;;;;5040342;28;20500;-48
2022/06/25 06:51:40;;;;;;;12.93;11.50;;;19.30;87.70;;;;;;5057556;28;20462;-48
2022/06/25 06:54:07;;;;;;;11.97;10.33;;;19.30;88.00;;;;;;5040774;28;20817;-48
2022/06/25 06:56:34;;;;;;;13.00;11.47;;;19.40;87.50;;;;;;5038068;28;20500;-48
2022/06/25 06:59:01;;;;;;;14.40;11.70;;;19.50;87.30;;;;;;5042223;28;20464;-48
2022/06/25 07:01:28;;;;;;;12.13;10.93;;;19.50;87.30;;;;;;5057436;28;20651;-48
2022/06/25 07:03:55;;;;;;;12.63;11.23;;;19.50;87.10;;;;;;5040024;28;20543;-48
2022/06/25 07:06:22;;;;;;;20.23;12.23;;;19.50;86.30;;;;;;5053528;28;20492;-48
2022/06/25 07:08:49;;;;;;;14.03;12.40;;;19.50;86.20;;;;;;5061510;28;20462;-48
2022/06/25 07:11:28;;;;;;;13.33;11.83;;;19.50;86.60;;;;;;5045039;28;20466;-48
2022/06/25 07:13:57;;;;;;;12.70;11.30;;;19.50;86.80;;;;;;5053329;28;20814;-49
2022/06/25 07:16:25;;;;;;;12.13;10.97;;;19.50;87.00;;;;;;5033489;28;20508;-48
2022/06/25 07:18:53;;;;;;;14.47;12.00;;;19.50;87.10;;;;;;5058463;28;20462;-48
2022/06/25 07:21:20;;;;;;;12.93;11.63;;;19.50;86.10;;;;;;5049403;28;20544;-48
2022/06/25 07:23:46;;;;;;;13.20;11.97;;;19.50;86.10;;;;;;5053016;28;20454;-48
2022/06/25 07:26:13;;;;;;;13.20;11.00;;;19.60;85.60;;;;;;5052229;28;20467;-48
2022/06/25 07:28:40;;;;;;;13.30;11.40;;;19.60;85.50;;;;;;5053607;28;20458;-48
2022/06/25 07:31:07;;;;;;;12.60;11.00;;;19.70;85.20;;;;;;5053879;28;20469;-48
2022/06/25 07:33:34;;;;;;;12.10;10.90;;;19.70;84.90;;;;;;5043954;28;20466;-49
2022/06/25 07:36:01;;;;;;;12.37;11.03;;;19.80;84.60;;;;;;5053140;28;20845;-48
2022/06/25 07:38:28;;;;;;;11.67;10.57;;;19.80;84.40;;;;;;5055157;28;20464;-48
2022/06/25 07:40:55;;;;;;;11.90;10.57;;;19.90;84.60;;;;;;5050884;28;20465;-48
2022/06/25 07:43:22;;;;;;;13.40;12.07;;;19.90;84.40;;;;;;5050287;28;20842;-49
2022/06/25 07:45:49;;;;;;;12.30;11.10;;;19.90;84.50;;;;;;5052972;28;20461;-48
2022/06/25 07:48:16;;;;;;;12.23;11.00;;;19.90;84.50;;;;;;5054411;28;20451;-48
2022/06/25 07:53:29;;;;;;;13.07;11.87;;;20.00;84.90;;;;;;5051025;28;20465;-49
2022/06/25 07:55:56;;;;;;;13.73;11.90;;;20.10;84.20;;;;;;5037355;28;20458;-49
2022/06/25 07:58:23;;;;;;;12.47;11.27;;;20.20;84.60;;;;;;5052793;28;20966;-49
2022/06/25 08:00:51;;;;;;;11.27;10.13;;;20.30;83.80;;;;;;5054560;28;20473;-49
2022/06/25 08:03:18;;;;;;;13.73;10.43;;;20.60;82.80;;;;;;5056220;28;20565;-49
2022/06/25 08:05:46;;;;;;;11.87;10.77;;;20.90;82.10;;;;;;5038284;28;20969;-49
2022/06/25 08:08:13;;;;;;;11.80;10.60;;;21.10;80.50;;;;;;5051812;28;20449;-49
2022/06/25 08:10:41;;;;;;;10.30;9.30;;;21.20;80.00;;;;;;5049695;28;20541;-49
2022/06/25 08:13:08;;;;;;;10.70;9.70;;;21.40;79.90;;;;;;5045474;28;20465;-48
2022/06/25 08:15:35;;;;;;;10.10;9.30;;;21.50;79.60;;;;;;5055600;28;20463;-48
2022/06/25 08:18:02;;;;;;;9.57;8.67;;;21.70;79.80;;;;;;5053420;28;20981;-48
2022/06/25 08:20:29;;;;;;;10.40;9.30;;;21.80;79.40;;;;;;5041699;28;20988;-48
2022/06/25 08:22:56;;;;;;;9.53;8.40;;;22.00;78.80;;;;;;5034636;28;20464;-48
2022/06/25 08:25:23;;;;;;;10.73;8.63;;;22.20;78.40;;;;;;5039045;28;20461;-48
2022/06/25 08:27:53;;;;;;;9.77;8.90;;;22.30;77.80;;;;;;5056217;28;20833;-48
2022/06/25 08:30:21;;;;;;;9.03;8.23;;;22.40;76.80;;;;;;5057810;28;20945;-49
2022/06/25 08:32:48;;;;;;;10.07;9.17;;;22.50;76.80;;;;;;5036718;28;20456;-48
2022/06/25 08:35:15;;;;;;;8.80;7.53;;;22.50;75.20;;;;;;5043042;28;20471;-51
2022/06/25 08:37:47;;;;;;;9.33;8.43;;;22.60;75.20;;;;;;5033522;28;20497;-51
2022/06/25 08:40:19;;;;;;;9.83;8.93;;;22.70;75.70;;;;;;5041012;28;20457;-51
2022/06/25 08:42:50;;;;;;;9.97;8.23;;;22.70;76.00;;;;;;5051173;28;20462;-51
2022/06/25 08:45:17;;;;;;;9.93;8.93;;;22.80;76.00;;;;;;5049583;28;20569;-48
2022/06/25 08:47:49;;;;;;;7.63;6.93;;;22.90;74.30;;;;;;5049294;28;20465;-46
2022/06/25 08:50:21;;;;;;;8.83;7.57;;;22.90;74.70;;;;;;5051136;28;20966;-46
2022/06/25 08:52:52;;;;;;;8.40;7.70;;;22.80;74.50;;;;;;5049657;28;20468;-46
2022/06/25 08:55:33;;;;;;;8.50;7.53;;;22.80;74.90;;;;;;5034426;28;20458;-46
2022/06/25 08:58:02;;;;;;;8.33;7.73;;;22.80;74.90;;;;;;5054310;28;20491;-46
2022/06/25 09:00:34;;;;;;;8.90;8.20;;;22.70;74.90;;;;;;5037267;28;20477;-46
2022/06/25 09:03:02;;;;;;;9.73;8.83;;;22.60;75.00;;;;;;5054562;28;20996;-46
2022/06/25 09:05:31;;;;;;;8.97;8.27;;;22.50;75.50;;;;;;5050670;28;20460;-46
2022/06/25 09:08:00;;;;;;;10.07;8.40;;;22.50;75.80;;;;;;5057058;28;21258;-46
2022/06/25 09:10:29;;;;;;;8.57;7.87;;;22.40;76.40;;;;;;5052771;28;20469;-46
2022/06/25 09:12:58;;;;;;;9.80;8.77;;;22.40;77.10;;;;;;5057611;28;20696;-46
2022/06/25 09:15:35;;;;;;;17.97;7.57;;;22.40;77.30;;;;;;5042556;28;20450;-46
2022/06/25 09:18:08;;;;;;;8.83;8.13;;;22.40;77.80;;;;;;5056826;28;20480;-46
2022/06/25 09:20:36;;;;;;;11.40;7.13;;;22.60;76.50;;;;;;5055415;28;20545;-46
2022/06/25 09:23:05;;;;;;;8.40;7.57;;;22.70;76.30;;;;;;5057366;28;20968;-46
2022/06/25 09:25:34;;;;;;;7.60;6.60;;;22.90;75.70;;;;;;5043419;28;20453;-46
2022/06/25 09:28:01;;;;;;;9.50;6.77;;;23.10;75.50;;;;;;5056774;28;20457;-46
2022/06/25 09:30:31;;;;;;;9.50;7.70;;;23.30;72.90;;;;;;5056213;28;20519;-46
2022/06/25 09:32:59;;;;;;;9.07;7.20;;;23.50;73.10;;;;;;5055877;28;20463;-46
2022/06/25 09:35:35;;;;;;;7.77;6.80;;;23.60;73.90;;;;;;5038183;28;20493;-46
2022/06/25 09:38:02;;;;;;;8.10;7.27;;;23.60;73.10;;;;;;5028978;28;20550;-46
2022/06/25 09:40:29;;;;;;;7.27;6.63;;;23.70;71.90;;;;;;5049737;28;20465;-46
2022/06/25 09:42:57;;;;;;;7.70;7.03;;;23.90;71.40;;;;;;5055260;28;20463;-46
2022/06/25 09:45:25;;;;;;;9.87;6.80;;;24.10;70.50;;;;;;5041748;28;20826;-48
2022/06/25 09:47:54;;;;;;;6.70;6.07;;;24.30;70.00;;;;;;5037944;28;21080;-47
2022/06/25 09:50:21;;;;;;;7.50;6.80;;;24.30;69.40;;;;;;5038129;28;20597;-48
2022/06/25 09:52:59;;;;;;;7.10;6.60;;;24.40;69.70;;;;;;5051785;28;20549;-47
2022/06/25 09:55:34;;;;;;;6.60;6.00;;;24.60;68.40;;;;;;5041826;28;21930;-47
2022/06/25 09:58:02;;;;;;;6.90;5.37;;;24.90;67.90;;;;;;5056509;28;20480;-48
2022/06/25 10:00:30;;;;;;;6.20;4.87;;;25.20;66.70;;;;;;5040686;28;20513;-48
2022/06/25 10:02:58;;;;;;;4.93;4.40;;;25.50;65.60;;;;;;5034775;28;21001;-48
2022/06/25 10:05:40;;;;;;;5.07;4.67;;;25.80;63.30;;;;;;5042194;28;20453;-48
2022/06/25 10:08:11;;;;;;;5.87;4.40;;;26.10;63.90;;;;;;5056445;28;20583;-48
2022/06/25 10:10:40;;;;;;;6.10;4.27;;;26.50;63.40;;;;;;5060088;28;20460;-48
2022/06/25 10:13:08;;;;;;;5.90;4.97;;;26.60;61.60;;;;;;5055255;28;20473;-47
2022/06/25 10:15:35;;;;;;;7.47;4.10;;;26.70;61.70;;;;;;5045601;28;20453;-47
2022/06/25 10:18:04;;;;;;;5.00;4.63;;;26.70;61.10;;;;;;5053234;28;20505;-47
2022/06/25 10:20:31;;;;;;;4.93;4.53;;;26.40;61.90;;;;;;5043489;28;20536;-49
2022/06/25 10:23:02;;;;;;;5.40;5.00;;;26.30;61.70;;;;;;5061664;28;20441;-49
2022/06/25 10:25:30;;;;;;;7.93;5.03;;;26.30;63.00;;;;;;5051719;28;20564;-49
2022/06/25 10:28:12;;;;;;;5.23;4.83;;;26.30;62.60;;;;;;5055022;28;20461;-49
2022/06/25 10:30:45;;;;;;;4.63;4.23;;;26.50;62.10;;;;;;5036768;28;20468;-49
2022/06/25 10:33:14;;;;;;;4.90;4.33;;;26.60;62.80;;;;;;5050392;28;20970;-49
2022/06/25 10:35:41;;;;;;;4.93;4.40;;;26.60;62.70;;;;;;5046965;28;20602;-49
2022/06/25 10:38:27;;;;;;;4.63;4.23;;;26.50;62.00;;;;;;5049296;28;20580;-48
2022/06/25 10:40:56;;;;;;;4.93;4.43;;;26.30;61.40;;;;;;5051963;28;20453;-49
2022/06/25 10:43:38;;;;;;;5.33;4.53;;;26.10;61.70;;;;;;5047998;28;20454;-49
2022/06/25 10:46:33;;;;;;;6.13;4.30;;;26.00;62.20;;;;;;5058129;28;20453;-48
2022/06/25 10:49:18;;;;;;;4.43;4.03;;;25.80;62.20;;;;;;5056637;28;20989;-48
2022/06/25 10:51:50;;;;;;;4.93;4.50;;;25.70;62.60;;;;;;5055614;28;20457;-49
2022/06/25 10:54:24;;;;;;;4.30;4.00;;;25.60;62.80;;;;;;5056704;28;20820;-48
2022/06/25 10:56:58;;;;;;;4.73;4.30;;;25.50;62.60;;;;;;5046837;28;20456;-49
2022/06/25 10:59:34;;;;;;;4.77;4.37;;;25.50;63.00;;;;;;5046296;28;20538;-49
2022/06/25 11:02:09;;;;;;;4.00;3.70;;;25.50;63.60;;;;;;5037267;28;20958;-49
2022/06/25 11:04:37;;;;;;;8.80;4.17;;;25.50;62.50;;;;;;5035621;28;20814;-48
2022/06/25 11:07:13;;;;;;;4.80;4.00;;;25.30;62.30;;;;;;5051898;28;20465;-49
2022/06/25 11:09:51;;;;;;;4.20;3.80;;;25.30;62.80;;;;;;5038541;28;20453;-48
2022/06/25 11:12:18;;;;;;;5.33;3.93;;;25.20;63.10;;;;;;5051768;28;20548;-49
2022/06/25 11:14:50;;;;;;;4.13;3.83;;;25.20;62.70;;;;;;5054822;28;20454;-48
2022/06/25 11:17:16;;;;;;;8.80;3.30;;;25.10;63.00;;;;;;5056523;28;20524;-48
2022/06/25 11:19:43;;;;;;;6.50;3.57;;;25.00;63.30;;;;;;5052687;28;20993;-48
2022/06/25 11:22:10;;;;;;;6.80;3.40;;;25.00;62.80;;;;;;5060031;28;20453;-48
2022/06/25 11:28:47;;;;;;;3.70;2.67;;;25.00;61.80;;;;;;5055469;28;20465;-48
2022/06/25 11:30:13;;;;;;;3.57;3.30;;;25.00;62.10;;;;;;5057250;28;20809;-48
2022/06/25 11:32:45;;;;;;;2.97;2.77;;;25.00;63.30;;;;;;5058271;28;20862;-49
2022/06/25 11:35:12;;;;;;;3.83;3.43;;;25.00;63.00;;;;;;5056875;28;20474;-48
2022/06/25 11:37:39;;;;;;;3.97;3.67;;;24.90;63.40;;;;;;5046207;28;20489;-48
2022/06/25 11:40:17;;;;;;;3.00;2.80;;;24.90;63.10;;;;;;5038430;28;20548;-48
2022/06/25 11:42:44;;;;;;;3.20;2.93;;;25.00;63.60;;;;;;5040111;28;20453;-49
2022/06/25 11:45:11;;;;;;;3.57;3.30;;;24.90;62.00;;;;;;5041101;28;20456;-48
2022/06/25 11:47:38;;;;;;;3.37;3.17;;;24.90;62.70;;;;;;5060288;28;20465;-48
2022/06/25 11:50:08;;;;;;;3.20;3.00;;;24.90;62.50;;;;;;5058097;28;20464;-49
2022/06/25 11:52:42;;;;;;;6.23;3.20;;;24.90;63.80;;;;;;5042345;28;20503;-49
2022/06/25 11:55:11;;;;;;;2.67;2.47;;;25.00;63.10;;;;;;5044697;28;20959;-49
2022/06/25 11:57:42;;;;;;;3.93;2.63;;;25.00;63.00;;;;;;5050319;28;20488;-49
2022/06/25 12:00:13;;;;;;;5.23;3.43;;;25.00;63.00;;;;;;5053366;28;20495;-48
2022/06/25 12:02:43;;;;;;;3.77;2.77;;;24.90;62.80;;;;;;5037333;28;20465;-49
2022/06/25 12:05:11;;;;;;;3.23;3.03;;;24.90;62.50;;;;;;5050922;28;20454;-48
2022/06/25 12:07:43;;;;;;;4.27;3.13;;;24.90;63.40;;;;;;5054451;28;20866;-48
2022/06/25 12:10:12;;;;;;;2.83;2.63;;;24.90;63.00;;;;;;5037762;28;21480;-48
2022/06/25 12:12:40;;;;;;;3.90;3.37;;;24.80;62.80;;;;;;5056276;28;20485;-49
2022/06/25 12:15:08;;;;;;;4.30;3.53;;;24.80;62.30;;;;;;5055871;28;20548;-48
2022/06/25 12:17:39;;;;;;;3.47;3.20;;;24.70;62.40;;;;;;5049595;28;20584;-49
2022/06/25 12:20:10;;;;;;;3.37;2.87;;;24.70;62.60;;;;;;5049389;28;20472;-48
2022/06/25 12:22:42;;;;;;;3.70;3.40;;;24.70;62.90;;;;;;5037544;28;20465;-48
2022/06/25 12:25:12;;;;;;;3.47;3.17;;;24.70;62.80;;;;;;5027697;28;20451;-48
2022/06/25 12:27:47;;;;;;;5.03;3.00;;;24.70;62.20;;;;;;5045282;28;20457;-48
2022/06/25 12:30:30;;;;;;;3.87;2.97;;;24.70;62.60;;;;;;5044536;28;20490;-48
2022/06/25 12:33:14;;;;;;;2.57;2.37;;;24.80;62.30;;;;;;5030910;28;20462;-48
2022/06/25 12:35:43;;;;;;;2.57;2.10;;;24.90;62.50;;;;;;5054391;28;21058;-48
2022/06/25 12:38:12;;;;;;;3.07;2.30;;;24.90;61.90;;;;;;5054895;28;20509;-48
2022/06/25 12:40:51;;;;;;;2.60;2.40;;;25.00;61.30;;;;;;5052425;28;20503;-48
2022/06/25 12:43:19;;;;;;;2.57;2.40;;;25.00;61.30;;;;;;5059297;28;20486;-49
2022/06/25 12:45:54;;;;;;;4.63;2.50;;;25.10;60.80;;;;;;5059965;28;20518;-48
2022/06/25 12:48:31;;;;;;;3.50;2.40;;;25.10;60.40;;;;;;5059258;28;20504;-48
2022/06/25 12:51:13;;;;;;;4.70;2.57;;;25.10;60.60;;;;;;5062067;28;20985;-48
2022/06/25 12:53:42;;;;;;;3.20;3.00;;;25.20;60.60;;;;;;5058311;28;20572;-48
2022/06/25 12:56:10;;;;;;;3.43;2.50;;;25.20;61.60;;;;;;5063941;28;20532;-50
2022/06/25 12:58:39;;;;;;;2.30;2.10;;;25.30;61.00;;;;;;5057961;28;20485;-50
2022/06/25 13:01:20;;;;;;;3.07;2.30;;;25.30;60.50;;;;;;5041328;28;20481;-50
2022/06/25 13:03:47;;;;;;;2.83;2.63;;;25.40;60.00;;;;;;5057421;28;20456;-50